sensor_id;sensor_type;location;lat;lon;timestamp;pressure;altitude;pressure_sealevel;temperature;humidity
58367;BME280;57745;42.524;12.052;2023-04-09T00:02:23;96410.69;;;14.08;46.34
58367;BME280;57745;42.524;12.052;2023-04-09T00:04:51;96408.72;;;14.08;46.53
58367;BME280;57745;42.524;12.052;2023-04-09T00:07:17;96410.47;;;13.93;46.94
58367;BME280;57745;42.524;12.052;2023-04-09T00:09:42;96421.25;;;13.96;47.03
58367;BME280;57745;42.524;12.052;2023-04-09T00:12:08;96419.09;;;13.91;47.25
58367;BME280;57745;42.524;12.052;2023-04-09T00:14:33;96410.63;;;13.98;46.67
58367;BME280;57745;42.524;12.052;2023-04-09T00:16:59;96412.44;;;13.92;47.13
58367;BME280;57745;42.524;12.052;2023-04-09T00:19:24;96409.28;;;14.03;46.86
58367;BME280;57745;42.524;12.052;2023-04-09T00:21:50;96404.63;;;14.22;46.44
58367;BME280;57745;42.524;12.052;2023-04-09T00:24:18;96413.81;;;13.97;46.80
58367;BME280;57745;42.524;12.052;2023-04-09T00:26:43;96412.19;;;14.09;46.38
58367;BME280;57745;42.524;12.052;2023-04-09T00:29:08;96405.13;;;13.89;47.13
58367;BME280;57745;42.524;12.052;2023-04-09T00:31:34;96411.44;;;13.77;47.76
58367;BME280;57745;42.524;12.052;2023-04-09T00:34:00;96410.94;;;14.00;46.97
58367;BME280;57745;42.524;12.052;2023-04-09T00:36:25;96409.28;;;14.03;47.02
58367;BME280;57745;42.524;12.052;2023-04-09T00:38:51;96407.28;;;13.94;47.37
58367;BME280;57745;42.524;12.052;2023-04-09T00:41:18;96409.72;;;13.92;47.20
58367;BME280;57745;42.524;12.052;2023-04-09T00:43:44;96407.41;;;13.91;47.38
58367;BME280;57745;42.524;12.052;2023-04-09T00:46:09;96411.38;;;13.99;46.92
58367;BME280;57745;42.524;12.052;2023-04-09T00:48:35;96404.31;;;13.71;47.49
58367;BME280;57745;42.524;12.052;2023-04-09T00:51:01;96405.75;;;13.84;47.19
58367;BME280;57745;42.524;12.052;2023-04-09T00:53:26;96411.25;;;14.02;46.85
58367;BME280;57745;42.524;12.052;2023-04-09T00:55:54;96403.06;;;14.02;46.42
58367;BME280;57745;42.524;12.052;2023-04-09T00:58:19;96414.31;;;14.14;46.52
58367;BME280;57745;42.524;12.052;2023-04-09T01:00:45;96413.91;;;13.84;47.08
58367;BME280;57745;42.524;12.052;2023-04-09T01:03:10;96408.47;;;13.84;47.51
58367;BME280;57745;42.524;12.052;2023-04-09T01:05:43;96410.63;;;13.98;46.92
58367;BME280;57745;42.524;12.052;2023-04-09T01:15:51;96414.19;;;13.77;47.34
58367;BME280;57745;42.524;12.052;2023-04-09T01:18:23;96410.03;;;13.94;46.84
58367;BME280;57745;42.524;12.052;2023-04-09T01:21:24;96416.78;;;13.81;47.29
58367;BME280;57745;42.524;12.052;2023-04-09T01:23:56;96420.16;;;13.94;46.92
58367;BME280;57745;42.524;12.052;2023-04-09T01:28:55;96422.91;;;13.94;47.16
58367;BME280;57745;42.524;12.052;2023-04-09T01:31:27;96416.06;;;13.98;46.70
58367;BME280;57745;42.524;12.052;2023-04-09T01:33:54;96415.88;;;13.84;47.31
58367;BME280;57745;42.524;12.052;2023-04-09T01:36:21;96417.22;;;13.79;47.45
58367;BME280;57745;42.524;12.052;2023-04-09T01:38:49;96403.06;;;14.02;46.61
58367;BME280;57745;42.524;12.052;2023-04-09T01:41:19;96403.56;;;13.70;47.29
58367;BME280;57745;42.524;12.052;2023-04-09T01:43:47;96397.28;;;13.91;47.02
58367;BME280;57745;42.524;12.052;2023-04-09T01:46:14;96398.13;;;13.79;47.18
58367;BME280;57745;42.524;12.052;2023-04-09T01:48:41;96388.16;;;13.85;46.94
58367;BME280;57745;42.524;12.052;2023-04-09T01:51:07;96398.16;;;13.88;46.75
58367;BME280;57745;42.524;12.052;2023-04-09T01:53:33;96393.75;;;13.82;46.86
58367;BME280;57745;42.524;12.052;2023-04-09T01:55:59;96399.06;;;13.85;46.70
58367;BME280;57745;42.524;12.052;2023-04-09T01:58:26;96392.13;;;13.93;46.78
58367;BME280;57745;42.524;12.052;2023-04-09T02:00:56;96394.84;;;13.84;46.81
58367;BME280;57745;42.524;12.052;2023-04-09T02:03:27;96389.06;;;13.82;47.00
58367;BME280;57745;42.524;12.052;2023-04-09T02:06:13;96389.06;;;13.82;46.88
58367;BME280;57745;42.524;12.052;2023-04-09T02:08:43;96388.44;;;13.78;47.03
58367;BME280;57745;42.524;12.052;2023-04-09T02:11:10;96403.75;;;13.85;46.72
58367;BME280;57745;42.524;12.052;2023-04-09T02:13:36;96396.84;;;14.02;46.58
58367;BME280;57745;42.524;12.052;2023-04-09T02:16:04;96410.16;;;13.91;46.83
58367;BME280;57745;42.524;12.052;2023-04-09T02:18:30;96401.63;;;13.80;47.06
58367;BME280;57745;42.524;12.052;2023-04-09T02:20:57;96401.22;;;13.90;46.88
58367;BME280;57745;42.524;12.052;2023-04-09T02:23:24;96405.59;;;13.88;46.61
58367;BME280;57745;42.524;12.052;2023-04-09T02:25:50;96401.03;;;13.85;47.10
58367;BME280;57745;42.524;12.052;2023-04-09T02:28:16;96409.19;;;13.85;47.20
58367;BME280;57745;42.524;12.052;2023-04-09T02:30:42;96408.06;;;13.95;46.99
58367;BME280;57745;42.524;12.052;2023-04-09T02:33:08;96402.72;;;13.91;46.63
58367;BME280;57745;42.524;12.052;2023-04-09T02:35:33;96404.97;;;13.84;47.11
58367;BME280;57745;42.524;12.052;2023-04-09T02:37:59;96405.44;;;13.82;47.14
58367;BME280;57745;42.524;12.052;2023-04-09T02:40:24;96407.53;;;13.78;47.43
58367;BME280;57745;42.524;12.052;2023-04-09T02:42:51;96413.44;;;13.86;46.74
58367;BME280;57745;42.524;12.052;2023-04-09T02:45:16;96413.19;;;13.93;47.02
58367;BME280;57745;42.524;12.052;2023-04-09T02:47:42;96409.34;;;13.81;47.44
58367;BME280;57745;42.524;12.052;2023-04-09T02:50:07;96405.44;;;13.82;47.07
58367;BME280;57745;42.524;12.052;2023-04-09T02:52:33;96421.59;;;13.77;47.63
58367;BME280;57745;42.524;12.052;2023-04-09T02:54:58;96404.50;;;13.85;47.25
58367;BME280;57745;42.524;12.052;2023-04-09T02:57:23;96407.31;;;14.03;47.12
58367;BME280;57745;42.524;12.052;2023-04-09T02:59:49;96406.19;;;13.83;47.80
58367;BME280;57745;42.524;12.052;2023-04-09T03:02:14;96412.31;;;13.96;47.17
58367;BME280;57745;42.524;12.052;2023-04-09T03:04:40;96412.31;;;13.96;47.37
58367;BME280;57745;42.524;12.052;2023-04-09T03:07:05;96403.66;;;13.97;47.39
58367;BME280;57745;42.524;12.052;2023-04-09T03:09:31;96405.78;;;13.93;46.88
58367;BME280;57745;42.524;12.052;2023-04-09T03:11:56;96400.97;;;14.07;46.86
58367;BME280;57745;42.524;12.052;2023-04-09T03:14:23;96405.78;;;13.93;47.35
58367;BME280;57745;42.524;12.052;2023-04-09T03:16:48;96418.53;;;14.06;47.40
58367;BME280;57745;42.524;12.052;2023-04-09T03:19:14;96414.13;;;13.68;47.82
58367;BME280;57745;42.524;12.052;2023-04-09T03:21:39;96412.00;;;14.03;47.28
58367;BME280;57745;42.524;12.052;2023-04-09T03:24:05;96402.41;;;13.89;47.64
58367;BME280;57745;42.524;12.052;2023-04-09T03:26:31;96400.63;;;13.95;47.23
58367;BME280;57745;42.524;12.052;2023-04-09T03:29:02;96399.22;;;13.82;47.57
58367;BME280;57745;42.524;12.052;2023-04-09T03:31:27;96407.75;;;14.02;47.20
58367;BME280;57745;42.524;12.052;2023-04-09T03:33:53;96400.00;;;13.91;47.17
58367;BME280;57745;42.524;12.052;2023-04-09T03:36:18;96408.47;;;13.84;47.75
58367;BME280;57745;42.524;12.052;2023-04-09T03:38:44;96400.47;;;13.99;46.90
58367;BME280;57745;42.524;12.052;2023-04-09T03:41:09;96406.53;;;13.94;46.97
58367;BME280;57745;42.524;12.052;2023-04-09T03:43:35;96416.38;;;14.00;46.88
58367;BME280;57745;42.524;12.052;2023-04-09T03:46:00;96406.19;;;13.83;47.78
58367;BME280;57745;42.524;12.052;2023-04-09T03:48:26;96410.78;;;13.95;47.22
58367;BME280;57745;42.524;12.052;2023-04-09T03:50:51;96415.16;;;13.92;46.85
58367;BME280;57745;42.524;12.052;2023-04-09T03:53:17;96405.91;;;13.90;47.32
58367;BME280;57745;42.524;12.052;2023-04-09T03:55:43;96409.44;;;13.69;47.84
58367;BME280;57745;42.524;12.052;2023-04-09T03:58:09;96414.41;;;13.92;47.39
58367;BME280;57745;42.524;12.052;2023-04-09T04:00:35;96413.41;;;14.08;46.71
58367;BME280;57745;42.524;12.052;2023-04-09T04:03:01;96421.78;;;13.82;47.33
58367;BME280;57745;42.524;12.052;2023-04-09T04:05:26;96419.44;;;14.02;46.69
58367;BME280;57745;42.524;12.052;2023-04-09T04:07:52;96418.78;;;13.89;47.14
58367;BME280;57745;42.524;12.052;2023-04-09T04:10:18;96415.06;;;14.05;46.82
58367;BME280;57745;42.524;12.052;2023-04-09T04:12:43;96415.47;;;13.94;47.36
58367;BME280;57745;42.524;12.052;2023-04-09T04:15:09;96417.91;;;14.01;46.76
58367;BME280;57745;42.524;12.052;2023-04-09T04:17:35;96420.31;;;13.99;47.22
58367;BME280;57745;42.524;12.052;2023-04-09T04:20:00;96424.94;;;13.81;47.48
58367;BME280;57745;42.524;12.052;2023-04-09T04:22:25;96431.84;;;13.94;47.13
58367;BME280;57745;42.524;12.052;2023-04-09T04:24:51;96432.38;;;13.80;47.49
58367;BME280;57745;42.524;12.052;2023-04-09T04:27:16;96430.28;;;13.84;47.54
58367;BME280;57745;42.524;12.052;2023-04-09T04:29:42;96428.25;;;13.76;47.34
58367;BME280;57745;42.524;12.052;2023-04-09T04:32:07;96429.84;;;13.64;47.61
58367;BME280;57745;42.524;12.052;2023-04-09T04:34:33;96434.28;;;13.71;47.98
58367;BME280;57745;42.524;12.052;2023-04-09T04:36:58;96444.69;;;13.63;48.05
58367;BME280;57745;42.524;12.052;2023-04-09T04:39:23;96429.63;;;13.80;47.23
58367;BME280;57745;42.524;12.052;2023-04-09T04:41:49;96433.22;;;13.68;47.87
58367;BME280;57745;42.524;12.052;2023-04-09T04:44:15;96441.34;;;13.59;48.24
58367;BME280;57745;42.524;12.052;2023-04-09T04:46:40;96436.53;;;13.94;47.26
58367;BME280;57745;42.524;12.052;2023-04-09T04:49:05;96437.69;;;13.84;47.66
58367;BME280;57745;42.524;12.052;2023-04-09T04:51:31;96452.28;;;13.68;48.06
58367;BME280;57745;42.524;12.052;2023-04-09T04:53:56;96451.00;;;13.60;47.83
58367;BME280;57745;42.524;12.052;2023-04-09T04:56:22;96448.28;;;13.82;47.58
58367;BME280;57745;42.524;12.052;2023-04-09T04:58:47;96452.94;;;13.72;47.63
58367;BME280;57745;42.524;12.052;2023-04-09T05:01:13;96450.09;;;13.85;47.56
58367;BME280;57745;42.524;12.052;2023-04-09T05:03:38;96456.03;;;13.61;48.54
58367;BME280;57745;42.524;12.052;2023-04-09T05:06:03;96453.81;;;13.69;48.06
58367;BME280;57745;42.524;12.052;2023-04-09T05:08:29;96448.41;;;13.78;47.94
58367;BME280;57745;42.524;12.052;2023-04-09T05:10:55;96447.25;;;13.88;47.79
58367;BME280;57745;42.524;12.052;2023-04-09T05:13:21;96452.81;;;13.54;48.41
58367;BME280;57745;42.524;12.052;2023-04-09T05:15:46;96467.94;;;13.77;47.92
58367;BME280;57745;42.524;12.052;2023-04-09T05:18:12;96454.75;;;13.75;48.22
58367;BME280;57745;42.524;12.052;2023-04-09T05:20:37;96465.03;;;13.71;48.51
58367;BME280;57745;42.524;12.052;2023-04-09T05:23:03;96465.09;;;13.58;48.48
58367;BME280;57745;42.524;12.052;2023-04-09T05:25:28;96466.91;;;13.61;48.45
58367;BME280;57745;42.524;12.052;2023-04-09T05:27:54;96475.53;;;13.82;48.21
58367;BME280;57745;42.524;12.052;2023-04-09T05:30:20;96474.09;;;13.68;48.30
58367;BME280;57745;42.524;12.052;2023-04-09T05:32:45;96475.78;;;13.75;48.12
58367;BME280;57745;42.524;12.052;2023-04-09T05:35:11;96486.84;;;13.71;48.28
58367;BME280;57745;42.524;12.052;2023-04-09T05:37:36;96483.28;;;13.83;48.54
58367;BME280;57745;42.524;12.052;2023-04-09T05:40:02;96475.19;;;13.71;48.70
58367;BME280;57745;42.524;12.052;2023-04-09T05:42:28;96481.94;;;13.66;49.10
58367;BME280;57745;42.524;12.052;2023-04-09T05:44:53;96485.88;;;13.65;49.29
58367;BME280;57745;42.524;12.052;2023-04-09T05:47:19;96492.91;;;13.75;48.70
58367;BME280;57745;42.524;12.052;2023-04-09T05:49:45;96485.69;;;13.81;48.74
58367;BME280;57745;42.524;12.052;2023-04-09T05:52:10;96487.53;;;13.84;49.17
58367;BME280;57745;42.524;12.052;2023-04-09T05:54:36;96482.63;;;13.79;48.96
58367;BME280;57745;42.524;12.052;2023-04-09T05:57:02;96479.72;;;13.74;49.48
58367;BME280;57745;42.524;12.052;2023-04-09T05:59:28;96497.34;;;13.82;49.27
58367;BME280;57745;42.524;12.052;2023-04-09T06:01:53;96498.72;;;13.86;49.31
58367;BME280;57745;42.524;12.052;2023-04-09T06:04:19;96501.03;;;13.66;49.98
58367;BME280;57745;42.524;12.052;2023-04-09T06:06:44;96501.75;;;13.88;48.70
58367;BME280;57745;42.524;12.052;2023-04-09T06:09:11;96520.03;;;13.79;49.42
58367;BME280;57745;42.524;12.052;2023-04-09T06:11:36;96523.06;;;14.02;49.13
58367;BME280;57745;42.524;12.052;2023-04-09T06:14:02;96518.06;;;13.79;48.96
58367;BME280;57745;42.524;12.052;2023-04-09T06:16:28;96514.44;;;14.04;48.39
58367;BME280;57745;42.524;12.052;2023-04-09T06:18:53;96512.19;;;13.81;49.04
58367;BME280;57745;42.524;12.052;2023-04-09T06:21:21;96521.03;;;13.94;49.01
58367;BME280;57745;42.524;12.052;2023-04-09T06:23:46;96525.16;;;13.77;49.21
58367;BME280;57745;42.524;12.052;2023-04-09T06:26:12;96530.88;;;13.91;48.65
58367;BME280;57745;42.524;12.052;2023-04-09T06:28:38;96526.66;;;13.99;48.96
58367;BME280;57745;42.524;12.052;2023-04-09T06:31:03;96529.34;;;13.90;49.13
58367;BME280;57745;42.524;12.052;2023-04-09T06:33:29;96528.69;;;13.86;49.21
58367;BME280;57745;42.524;12.052;2023-04-09T06:35:54;96527.81;;;13.89;49.52
58367;BME280;57745;42.524;12.052;2023-04-09T06:38:20;96526.97;;;14.01;49.09
58367;BME280;57745;42.524;12.052;2023-04-09T06:40:45;96525.72;;;13.93;48.91
58367;BME280;57745;42.524;12.052;2023-04-09T06:43:11;96542.41;;;13.95;49.09
58367;BME280;57745;42.524;12.052;2023-04-09T06:45:36;96536.19;;;13.95;49.24
58367;BME280;57745;42.524;12.052;2023-04-09T06:48:02;96544.78;;;13.84;49.38
58367;BME280;57745;42.524;12.052;2023-04-09T06:50:28;96542.81;;;14.16;48.59
58367;BME280;57745;42.524;12.052;2023-04-09T06:52:54;96539.13;;;14.10;48.77
58367;BME280;57745;42.524;12.052;2023-04-09T06:55:20;96548.69;;;14.05;49.13
58367;BME280;57745;42.524;12.052;2023-04-09T06:57:45;96546.19;;;14.20;48.62
58367;BME280;57745;42.524;12.052;2023-04-09T07:00:11;96554.88;;;14.06;48.90
58367;BME280;57745;42.524;12.052;2023-04-09T07:02:37;96553.09;;;14.12;48.57
58367;BME280;57745;42.524;12.052;2023-04-09T07:05:03;96563.13;;;14.15;48.68
58367;BME280;57745;42.524;12.052;2023-04-09T07:07:29;96569.78;;;14.14;48.93
58367;BME280;57745;42.524;12.052;2023-04-09T07:09:54;96565.47;;;14.03;48.63
58367;BME280;57745;42.524;12.052;2023-04-09T07:12:30;96566.88;;;14.08;49.35
58367;BME280;57745;42.524;12.052;2023-04-09T07:14:57;96568.84;;;14.08;48.83
58367;BME280;57745;42.524;12.052;2023-04-09T07:17:23;96580.00;;;14.00;49.17
58367;BME280;57745;42.524;12.052;2023-04-09T07:19:48;96567.44;;;14.03;49.30
58367;BME280;57745;42.524;12.052;2023-04-09T07:22:15;96565.44;;;13.94;49.45
58367;BME280;57745;42.524;12.052;2023-04-09T07:24:41;96576.19;;;13.98;49.53
58367;BME280;57745;42.524;12.052;2023-04-09T07:27:06;96585.44;;;14.00;49.34
58367;BME280;57745;42.524;12.052;2023-04-09T07:29:32;96582.59;;;14.04;49.24
58367;BME280;57745;42.524;12.052;2023-04-09T07:31:57;96584.94;;;14.15;48.69
58367;BME280;57745;42.524;12.052;2023-04-09T07:34:25;96590.06;;;14.13;48.85
58367;BME280;57745;42.524;12.052;2023-04-09T07:36:50;96590.63;;;14.29;48.29
58367;BME280;57745;42.524;12.052;2023-04-09T07:39:17;96583.59;;;14.19;48.89
58367;BME280;57745;42.524;12.052;2023-04-09T07:41:42;96598.97;;;14.35;48.72
58367;BME280;57745;42.524;12.052;2023-04-09T07:44:08;96589.59;;;14.36;48.63
58367;BME280;57745;42.524;12.052;2023-04-09T07:46:33;96595.84;;;14.15;48.63
58367;BME280;57745;42.524;12.052;2023-04-09T07:48:59;96596.84;;;14.30;48.35
58367;BME280;57745;42.524;12.052;2023-04-09T07:51:24;96602.69;;;14.19;48.22
58367;BME280;57745;42.524;12.052;2023-04-09T07:53:50;96600.66;;;14.32;48.19
58367;BME280;57745;42.524;12.052;2023-04-09T07:56:15;96602.19;;;14.33;48.25
58367;BME280;57745;42.524;12.052;2023-04-09T07:58:41;96604.66;;;14.41;48.23
58367;BME280;57745;42.524;12.052;2023-04-09T08:01:07;96600.50;;;14.36;48.77
58367;BME280;57745;42.524;12.052;2023-04-09T08:03:33;96600.63;;;14.54;48.34
58367;BME280;57745;42.524;12.052;2023-04-09T08:06:00;96605.06;;;14.39;48.67
58367;BME280;57745;42.524;12.052;2023-04-09T08:08:26;96606.66;;;14.49;48.82
58367;BME280;57745;42.524;12.052;2023-04-09T08:10:52;96613.88;;;14.65;48.38
58367;BME280;57745;42.524;12.052;2023-04-09T08:13:17;96613.44;;;14.66;48.58
58367;BME280;57745;42.524;12.052;2023-04-09T08:15:43;96611.56;;;14.54;48.17
58367;BME280;57745;42.524;12.052;2023-04-09T08:18:08;96612.00;;;14.53;48.84
58367;BME280;57745;42.524;12.052;2023-04-09T08:20:34;96607.94;;;14.57;48.14
58367;BME280;57745;42.524;12.052;2023-04-09T08:23:02;96612.13;;;14.80;48.01
58367;BME280;57745;42.524;12.052;2023-04-09T08:25:28;96606.34;;;14.47;49.35
58367;BME280;57745;42.524;12.052;2023-04-09T08:27:53;96606.38;;;14.87;47.76
58367;BME280;57745;42.524;12.052;2023-04-09T08:30:19;96614.31;;;14.63;48.32
58367;BME280;57745;42.524;12.052;2023-04-09T08:32:45;96607.75;;;14.83;48.44
58367;BME280;57745;42.524;12.052;2023-04-09T08:35:11;96617.72;;;14.77;48.27
58367;BME280;57745;42.524;12.052;2023-04-09T08:37:37;96613.84;;;14.96;48.00
58367;BME280;57745;42.524;12.052;2023-04-09T08:40:02;96606.25;;;14.91;48.28
58367;BME280;57745;42.524;12.052;2023-04-09T08:42:30;96615.50;;;14.93;48.01
58367;BME280;57745;42.524;12.052;2023-04-09T08:44:55;96610.19;;;14.90;47.92
58367;BME280;57745;42.524;12.052;2023-04-09T08:47:21;96606.25;;;14.91;48.44
58367;BME280;57745;42.524;12.052;2023-04-09T08:49:47;96609.88;;;14.97;49.22
58367;BME280;57745;42.524;12.052;2023-04-09T08:52:14;96617.63;;;14.98;48.45
58367;BME280;57745;42.524;12.052;2023-04-09T08:54:41;96611.28;;;15.01;48.44
58367;BME280;57745;42.524;12.052;2023-04-09T08:57:07;96614.19;;;15.07;48.36
58367;BME280;57745;42.524;12.052;2023-04-09T08:59:32;96615.97;;;15.01;48.68
58367;BME280;57745;42.524;12.052;2023-04-09T09:02:08;96615.72;;;15.08;48.02
58367;BME280;57745;42.524;12.052;2023-04-09T09:04:47;96615.09;;;15.04;47.82
58367;BME280;57745;42.524;12.052;2023-04-09T09:07:14;96613.16;;;15.23;47.04
58367;BME280;57745;42.524;12.052;2023-04-09T09:09:57;96619.94;;;15.09;47.18
58367;BME280;57745;42.524;12.052;2023-04-09T09:12:41;96618.00;;;15.19;47.37
58367;BME280;57745;42.524;12.052;2023-04-09T09:15:27;96623.94;;;15.17;47.58
58367;BME280;57745;42.524;12.052;2023-04-09T09:17:57;96620.41;;;15.07;47.86
58367;BME280;57745;42.524;12.052;2023-04-09T09:20:24;96626.53;;;15.30;47.32
58367;BME280;57745;42.524;12.052;2023-04-09T09:22:52;96620.78;;;15.37;47.29
58367;BME280;57745;42.524;12.052;2023-04-09T09:25:18;96620.75;;;15.28;47.40
58367;BME280;57745;42.524;12.052;2023-04-09T09:27:47;96624.72;;;15.36;47.15
58367;BME280;57745;42.524;12.052;2023-04-09T09:30:20;96632.44;;;15.19;47.58
58367;BME280;57745;42.524;12.052;2023-04-09T09:32:46;96628.91;;;15.09;48.19
58367;BME280;57745;42.524;12.052;2023-04-09T09:35:11;96632.69;;;15.12;46.99
58367;BME280;57745;42.524;12.052;2023-04-09T09:37:37;96642.75;;;15.15;47.23
58367;BME280;57745;42.524;12.052;2023-04-09T09:40:03;96631.25;;;15.48;46.36
58367;BME280;57745;42.524;12.052;2023-04-09T09:42:28;96624.56;;;15.30;46.30
58367;BME280;57745;42.524;12.052;2023-04-09T09:44:54;96632.16;;;15.35;46.63
58367;BME280;57745;42.524;12.052;2023-04-09T09:47:21;96632.75;;;15.30;46.28
58367;BME280;57745;42.524;12.052;2023-04-09T09:49:48;96636.28;;;15.49;46.14
58367;BME280;57745;42.524;12.052;2023-04-09T09:52:14;96631.56;;;15.31;46.80
58367;BME280;57745;42.524;12.052;2023-04-09T09:54:42;96639.44;;;15.29;46.55
58367;BME280;57745;42.524;12.052;2023-04-09T09:57:10;96644.47;;;15.40;46.05
58367;BME280;57745;42.524;12.052;2023-04-09T09:59:42;96639.13;;;15.36;46.33
58367;BME280;57745;42.524;12.052;2023-04-09T10:02:17;96636.72;;;15.29;46.07
58367;BME280;57745;42.524;12.052;2023-04-09T10:04:43;96637.34;;;15.42;45.91
58367;BME280;57745;42.524;12.052;2023-04-09T10:07:09;96643.25;;;15.41;46.18
58367;BME280;57745;42.524;12.052;2023-04-09T10:09:36;96639.00;;;15.49;45.90
58367;BME280;57745;42.524;12.052;2023-04-09T10:12:04;96647.06;;;15.43;46.09
58367;BME280;57745;42.524;12.052;2023-04-09T10:14:31;96635.50;;;15.39;46.04
58367;BME280;57745;42.524;12.052;2023-04-09T10:16:58;96634.00;;;15.38;46.44
58367;BME280;57745;42.524;12.052;2023-04-09T10:19:24;96629.91;;;15.43;46.18
58367;BME280;57745;42.524;12.052;2023-04-09T10:21:54;96642.06;;;15.51;46.36
58367;BME280;57745;42.524;12.052;2023-04-09T10:24:20;96642.06;;;15.42;47.23
58367;BME280;57745;42.524;12.052;2023-04-09T10:26:46;96634.28;;;15.40;46.92
58367;BME280;57745;42.524;12.052;2023-04-09T10:29:13;96632.59;;;15.34;47.03
58367;BME280;57745;42.524;12.052;2023-04-09T10:32:02;96625.41;;;15.67;45.71
58367;BME280;57745;42.524;12.052;2023-04-09T10:34:28;96632.84;;;15.67;45.77
58367;BME280;57745;42.524;12.052;2023-04-09T10:36:57;96624.66;;;15.58;46.57
58367;BME280;57745;42.524;12.052;2023-04-09T10:39:29;96614.91;;;15.66;46.13
58367;BME280;57745;42.524;12.052;2023-04-09T10:41:57;96619.47;;;15.60;46.16
58367;BME280;57745;42.524;12.052;2023-04-09T10:44:24;96613.06;;;15.54;46.30
58367;BME280;57745;42.524;12.052;2023-04-09T10:46:54;96626.75;;;15.63;45.92
58367;BME280;57745;42.524;12.052;2023-04-09T10:49:24;96622.81;;;15.73;45.51
58367;BME280;57745;42.524;12.052;2023-04-09T10:52:00;96629.81;;;15.56;45.24
58367;BME280;57745;42.524;12.052;2023-04-09T10:59:36;96630.28;;;15.82;44.85
58367;BME280;57745;42.524;12.052;2023-04-09T11:02:02;96641.31;;;15.60;44.49
58367;BME280;57745;42.524;12.052;2023-04-09T11:07:04;96630.66;;;15.53;44.59
58367;BME280;57745;42.524;12.052;2023-04-09T11:09:33;96634.06;;;15.57;44.72
58367;BME280;57745;42.524;12.052;2023-04-09T11:11:59;96627.53;;;15.72;44.36
58367;BME280;57745;42.524;12.052;2023-04-09T11:14:26;96620.53;;;15.71;44.45
58367;BME280;57745;42.524;12.052;2023-04-09T11:16:51;96627.66;;;15.60;44.41
58367;BME280;57745;42.524;12.052;2023-04-09T11:19:18;96627.97;;;15.71;44.79
58367;BME280;57745;42.524;12.052;2023-04-09T11:21:44;96634.06;;;15.75;44.18
58367;BME280;57745;42.524;12.052;2023-04-09T11:24:12;96634.69;;;15.70;43.88
58367;BME280;57745;42.524;12.052;2023-04-09T11:26:38;96634.38;;;15.68;43.48
58367;BME280;57745;42.524;12.052;2023-04-09T11:29:04;96631.94;;;15.70;43.89
58367;BME280;57745;42.524;12.052;2023-04-09T11:31:31;96633.91;;;15.78;43.83
58367;BME280;57745;42.524;12.052;2023-04-09T11:33:56;96631.50;;;15.80;43.67
58367;BME280;57745;42.524;12.052;2023-04-09T11:36:22;96631.50;;;15.80;43.88
58367;BME280;57745;42.524;12.052;2023-04-09T11:38:48;96623.56;;;15.82;43.56
58367;BME280;57745;42.524;12.052;2023-04-09T11:41:14;96608.53;;;15.87;43.56
58367;BME280;57745;42.524;12.052;2023-04-09T11:43:40;96614.00;;;15.87;43.65
58367;BME280;57745;42.524;12.052;2023-04-09T11:46:07;96608.22;;;15.85;43.54
58367;BME280;57745;42.524;12.052;2023-04-09T11:48:33;96619.03;;;15.79;43.57
58367;BME280;57745;42.524;12.052;2023-04-09T11:50:59;96620.84;;;15.73;42.88
58367;BME280;57745;42.524;12.052;2023-04-09T11:53:29;96613.41;;;15.74;43.09
58367;BME280;57745;42.524;12.052;2023-04-09T11:55:55;96618.56;;;15.81;42.80
58367;BME280;57745;42.524;12.052;2023-04-09T11:58:22;96604.59;;;15.88;42.65
58367;BME280;57745;42.524;12.052;2023-04-09T12:00:52;96610.38;;;15.90;42.89
58367;BME280;57745;42.524;12.052;2023-04-09T12:03:17;96607.00;;;15.86;42.58
58367;BME280;57745;42.524;12.052;2023-04-09T12:05:45;96602.63;;;15.79;42.52
58367;BME280;57745;42.524;12.052;2023-04-09T12:08:13;96601.69;;;15.82;42.99
58367;BME280;57745;42.524;12.052;2023-04-09T12:10:41;96611.88;;;15.91;43.12
58367;BME280;57745;42.524;12.052;2023-04-09T12:13:08;96616.59;;;15.82;42.88
58367;BME280;57745;42.524;12.052;2023-04-09T12:15:36;96614.91;;;15.84;42.53
58367;BME280;57745;42.524;12.052;2023-04-09T12:18:02;96610.81;;;15.79;42.84
58367;BME280;57745;42.524;12.052;2023-04-09T12:20:38;96600.03;;;15.94;42.46
58367;BME280;57745;42.524;12.052;2023-04-09T12:23:05;96604.91;;;15.81;43.24
58367;BME280;57745;42.524;12.052;2023-04-09T12:25:42;96612.03;;;15.78;42.93
58367;BME280;57745;42.524;12.052;2023-04-09T12:28:10;96609.75;;;15.86;42.85
58367;BME280;57745;42.524;12.052;2023-04-09T12:30:35;96608.38;;;15.91;43.00
58367;BME280;57745;42.524;12.052;2023-04-09T12:33:02;96607.00;;;16.04;43.20
58367;BME280;57745;42.524;12.052;2023-04-09T12:35:28;96611.28;;;15.78;43.45
58367;BME280;57745;42.524;12.052;2023-04-09T12:37:53;96593.94;;;15.72;43.51
58367;BME280;57745;42.524;12.052;2023-04-09T12:40:19;96599.59;;;15.77;43.06
58367;BME280;57745;42.524;12.052;2023-04-09T12:42:45;96601.84;;;15.97;42.64
58367;BME280;57745;42.524;12.052;2023-04-09T12:45:13;96609.59;;;15.99;41.96
58367;BME280;57745;42.524;12.052;2023-04-09T12:47:39;96602.44;;;16.01;42.20
58367;BME280;57745;42.524;12.052;2023-04-09T12:50:06;96604.28;;;16.04;41.54
58367;BME280;57745;42.524;12.052;2023-04-09T12:52:42;96589.22;;;16.00;42.34
58367;BME280;57745;42.524;12.052;2023-04-09T12:55:08;96600.59;;;16.07;42.40
58367;BME280;57745;42.524;12.052;2023-04-09T12:57:36;96594.06;;;16.14;41.90
58367;BME280;57745;42.524;12.052;2023-04-09T13:00:02;96594.84;;;15.87;42.66
58367;BME280;57745;42.524;12.052;2023-04-09T13:02:29;96583.31;;;16.01;42.02
58367;BME280;57745;42.524;12.052;2023-04-09T13:04:54;96595.75;;;16.02;41.80
58367;BME280;57745;42.524;12.052;2023-04-09T13:07:20;96588.47;;;15.99;41.90